Flight Track Log - Related Links

Times and Time Zones

All times are in EDT time to prevent confusion due to time zone crossing. See the UAL4236 flight status page for this flight to view local times or setup timezone preferences in your user account.

Time Position Orientation Groundspeed Altitude Reporting Facility
EDT Latitude Longitude Course Direction KTS MPH feet Rate Location/Type
Mon 10:08:15 AM 29.9594 -95.3414 276° West 140 161 700  Level Houston Center
Mon 10:09:34 AM 29.8989 -95.3922 216° Southwest 257 296 2,600 1,627 Climbing Houston Center
Mon 10:10:13 AM 29.8761 -95.4197 226° Southwest 244 281 3,900 2,073 Climbing Houston Center
Mon 10:10:29 AM 29.8533 -95.4458 225° Southwest 261 300 4,500 1,839 Climbing Houston Center
Mon 10:11:00 AM 30.0297 -95.7672 277° West  Level FlightAware
Mon 10:11:15 AM 29.8375 -95.4872 246° West 260 299 5,800  Level Houston Center
Mon 10:11:30 AM 29.8375 -95.5247 270° West 268 308 7,100 2,806 Climbing Houston Center
Mon 10:12:00 AM 30.0397 -95.8763 276° West  Level FlightAware
Mon 10:12:17 AM 29.8350 -95.5842 267° West 250 288 8,700  Level Houston Center
Mon 10:13:00 AM 30.0488 -95.9855 276° West  Level FlightAware
Mon 10:13:19 AM 29.8694 -95.6589 298° West 262 302 10,100  Level Houston Center
Mon 10:14:21 AM 29.9125 -95.7450 300° West 296 341 10,600 823 Climbing Houston Center
Mon 10:15:23 AM 29.9597 -95.8386 300° West 329 379 11,800 1,210 Climbing Houston Center
Mon 10:16:25 AM 30.0064 -95.9339 300° West 340 391 13,100 1,452 Climbing Houston Center
Mon 10:17:27 AM 30.0606 -96.0433 300° West 336 387 14,800 1,403 Climbing Houston Center
Mon 10:18:29 AM 30.0828 -96.1453 284° West 326 375 16,000 1,113 Climbing Houston Center
Mon 10:19:31 AM 30.1003 -96.2517 281° West 334 384 17,100 919 Climbing Houston Center
Mon 10:20:33 AM 30.1161 -96.3586 280° West 339 390 17,900 871 Climbing Houston Center
Mon 10:21:35 AM 30.1339 -96.4669 281° West 344 396 18,900 968 Climbing Houston Center
Mon 10:22:37 AM 30.1503 -96.5769 280° West 348 400 19,900 1,065 Climbing Houston Center
Mon 10:23:39 AM 30.1708 -96.7103 280° West 354 407 21,100 1,065 Climbing Houston Center
Mon 10:24:41 AM 30.1878 -96.8236 280° West 359 413 22,100 1,065 Climbing Houston Center
Mon 10:25:43 AM 30.2042 -96.9364 280° West 358 412 23,300 1,113 Climbing Houston Center
Mon 10:26:45 AM 30.2214 -97.0481 280° West 356 410 24,400 1,065 Climbing Houston Center
Mon 10:27:47 AM 30.2381 -97.1594 280° West 354 407 25,500 1,161 Climbing Houston Center
Mon 10:28:49 AM 30.2575 -97.2919 280° West 350 403 26,800 1,161 Climbing Houston Center
Mon 10:29:51 AM 30.2728 -97.4017 279° West 348 400 27,900 1,065 Climbing Houston Center
Mon 10:30:53 AM 30.2875 -97.5089 279° West 340 391 29,000 1,113 Climbing Houston Center
Mon 10:31:55 AM 30.3039 -97.6153 280° West 338 389 30,200 1,161 Climbing Houston Center
Mon 10:32:57 AM 30.3181 -97.7206 279° West 333 383 31,400 1,355 Climbing Houston Center
Mon 10:33:59 AM 30.3367 -97.8422 280° West 323 372 33,000 1,452 Climbing Houston Center
Mon 10:35:01 AM 30.3506 -97.9419 279° West 314 361 34,400 1,152 Climbing Houston Center
Mon 10:36:04 AM 30.3636 -98.0369 279° West 302 348 35,400 720 Climbing Houston Center
Mon 10:37:06 AM 30.3753 -98.1306 278° West 296 341 35,900 290 Climbing Houston Center
Mon 10:38:08 AM 30.3900 -98.2289 280° West 310 357 36,000 48 Climbing Houston Center
Mon 10:39:10 AM 30.4050 -98.3314 280° West 322 371 36,000  Level Houston Center
Mon 10:40:12 AM 30.4217 -98.4628 278° West 342 394 36,000  Level Houston Center
Mon 10:41:14 AM 30.4372 -98.5806 279° West 353 406 36,000  Level Houston Center
Mon 10:42:16 AM 30.4522 -98.6967 279° West 363 418 36,000  Level Houston Center
Mon 10:43:18 AM 30.4669 -98.8117 278° West 363 418 36,000  Level Houston Center
Mon 10:44:20 AM 30.4794 -98.9178 278° West 358 412 36,000  Level Houston Center
Mon 10:45:23 AM 30.4992 -99.0544 280° West 360 414 36,000  Level Houston Center
Mon 10:46:25 AM 30.5150 -99.1689 279° West 361 415 36,000  Level Houston Center
Mon 10:47:27 AM 30.5278 -99.2831 277° West 361 415 36,000  Level Houston Center
Mon 10:48:29 AM 30.5436 -99.3986 279° West 363 418 36,000  Level Houston Center
Mon 10:49:31 AM 30.5586 -99.5147 279° West 365 420 36,000  Level Houston Center
Mon 10:50:33 AM 30.5775 -99.6536 279° West 366 421 36,000  Level Houston Center
Mon 10:51:35 AM 30.5914 -99.7700 278° West 367 422 36,000  Level Houston Center
Mon 10:52:37 AM 30.6108 -99.8856 281° West 367 422 36,000  Level Houston Center
Mon 10:53:39 AM 30.6361 -100.0003 284° West 371 427 36,000  Level Houston Center
Mon 10:54:41 AM 30.6600 -100.1153 284° West 370 426 36,000  Level Houston Center
Mon 10:55:43 AM 30.6867 -100.2528 283° West 368 423 36,000  Level Houston Center
Mon 10:56:45 AM 30.7103 -100.3661 284° West 366 421 36,000  Level Houston Center
Mon 10:57:47 AM 30.7333 -100.4800 283° West 365 420 36,000  Level Houston Center
Mon 10:58:49 AM 30.7558 -100.5944 283° West 367 422 36,000  Level Houston Center
Mon 10:59:51 AM 30.7775 -100.7086 282° West 364 419 36,000  Level Houston Center
Mon 11:00:53 AM 30.8019 -100.8233 284° West 366 421 36,000  Level Houston Center
Mon 11:01:56 AM 30.8278 -100.9625 282° West 368 423 36,000  Level Houston Center
Mon 11:02:58 AM 30.8500 -101.0789 283° West 369 425 36,000  Level Houston Center
Mon 11:04:00 AM 30.8722 -101.1942 283° West 368 423 36,000  Level Houston Center
Mon 11:05:02 AM 30.8958 -101.3097 283° West 369 425 36,000  Level Houston Center
Mon 11:06:04 AM 30.9169 -101.4275 282° West 370 426 36,000  Level Houston Center
Mon 11:06:34 AM 30.9261 -101.4853 280° West 370 426 36,000  Level Albuquerque Center
Mon 11:07:36 AM 30.9522 -101.6272 282° West 372 428 36,000  Level Albuquerque Center
Mon 11:08:38 AM 30.9753 -101.7453 283° West 374 430 36,000  Level Albuquerque Center
Mon 11:09:40 AM 30.9975 -101.8633 282° West 373 429 36,000  Level Albuquerque Center
Mon 11:10:42 AM 31.0208 -101.9850 283° West 384 442 36,000  Level Albuquerque Center
Mon 11:11:44 AM 31.0422 -102.1050 282° West 382 440 36,000  Level Albuquerque Center
Mon 11:12:46 AM 31.0653 -102.2250 283° West 379 436 36,000  Level Albuquerque Center
Mon 11:13:48 AM 31.0911 -102.3686 282° West 378 435 36,000  Level Albuquerque Center
Mon 11:14:50 AM 31.1131 -102.4889 282° West 379 436 36,000  Level Albuquerque Center
Mon 11:15:52 AM 31.1353 -102.6164 282° West 376 433 36,000  Level Albuquerque Center
Mon 11:16:54 AM 31.1575 -102.7381 282° West 381 438 36,000  Level Albuquerque Center
Mon 11:17:56 AM 31.1794 -102.8606 282° West 385 443 36,000  Level Albuquerque Center
Mon 11:18:58 AM 31.2006 -102.9811 282° West 381 438 36,000  Level Albuquerque Center
Mon 11:20:00 AM 31.2225 -103.1017 282° West 380 437 36,000  Level Albuquerque Center
Mon 11:21:02 AM 31.2433 -103.2225 281° West 380 437 36,000  Level Albuquerque Center
Mon 11:22:04 AM 31.2683 -103.3672 281° West 380 437 36,000  Level Albuquerque Center
Mon 11:23:06 AM 31.2897 -103.4867 282° West 379 436 36,000  Level Albuquerque Center
Mon 11:24:08 AM 31.3106 -103.6067 282° West 377 434 36,000  Level Albuquerque Center
Mon 11:25:10 AM 31.3303 -103.7269 281° West 378 435 36,000  Level Albuquerque Center
Mon 11:26:12 AM 31.3500 -103.8422 281° West 378 435 36,000  Level Albuquerque Center
Mon 11:27:14 AM 31.3744 -103.9869 281° West 380 437 36,000  Level Albuquerque Center
Mon 11:28:16 AM 31.3956 -104.1075 282° West 380 437 36,000 -48 Level Albuquerque Center
Mon 11:29:18 AM 31.4164 -104.2275 282° West 379 436 35,900 -145 Descending Albuquerque Center
Mon 11:30:20 AM 31.4378 -104.3494 282° West 384 442 35,700 -629 Descending Albuquerque Center
Mon 11:31:22 AM 31.4539 -104.4661 279° West 372 428 34,600 -1,355 Descending Albuquerque Center
Mon 11:32:24 AM 31.4675 -104.5831 278° West 367 422 32,900 -1,887 Descending Albuquerque Center
Mon 11:33:26 AM 31.4819 -104.7306 277° West 378 435 30,700 -2,081 Descending Albuquerque Center
Mon 11:34:28 AM 31.4958 -104.8625 277° West 403 464 28,600 -2,032 Descending Albuquerque Center
Mon 11:35:30 AM 31.5092 -104.9961 277° West 414 476 26,500 -2,129 Descending Albuquerque Center
Mon 11:36:32 AM 31.5239 -105.1311 277° West 420 483 24,200 -2,177 Descending Albuquerque Center
Mon 11:37:34 AM 31.5361 -105.2636 276° West 416 479 22,000 -2,351 Descending Albuquerque Center
Mon 11:38:09 AM 31.5436 -105.3667 275° West 405 466 20,400 -2,516 Descending Albuquerque Center
Mon 11:38:36 AM 31.5514 -105.4186 280° West 403 464 19,400 -2,055 Descending Albuquerque Center
Mon 11:39:22 AM 31.5586 -105.5128 275° West 392 451 17,900 -1,935 Descending Albuquerque Center
Mon 11:39:38 AM 31.5639 -105.5450 281° West 394 453 17,400 -2,300 Descending Albuquerque Center
Mon 11:40:22 AM 31.5711 -105.6369 275° West 376 433 15,600 -2,032 Descending Albuquerque Center
Mon 11:40:40 AM 31.5758 -105.6664 281° West 379 436 15,300 -1,672 Descending Albuquerque Center
Mon 11:41:23 AM 31.5828 -105.7561 275° West 335 386 13,900 -1,742 Descending Albuquerque Center
Mon 11:41:42 AM 31.5853 -105.7761 278° West 344 396 13,500 -1,500 Descending Albuquerque Center
Mon 11:42:23 AM 31.6128 -105.8483 294° West 293 337 12,400 -1,452 Descending Albuquerque Center
Mon 11:42:44 AM 31.6197 -105.8636 298° West 300 345 12,000 -1,522 Descending Albuquerque Center
Mon 11:43:30 AM 31.6542 -105.9328 300° West 269 310 10,700 -1,452 Descending Albuquerque Center
Mon 11:43:46 AM 31.6589 -105.9403 306° West 276 318 10,500 -1,475 Descending Albuquerque Center
Mon 11:44:31 AM 31.6917 -106.0083 300° West 264 304 9,200 -1,645 Descending Albuquerque Center
Mon 11:44:48 AM 31.7028 -106.0289 302° West 263 303 8,800 -1,215 Descending Albuquerque Center
Mon 11:45:50 AM 31.7350 -106.0956 300° West 238 274 7,600 -1,113 Descending Albuquerque Center
Mon 11:46:52 AM 31.7561 -106.1633 290° West 224 258 6,500 -1,065 Descending Albuquerque Center

Login

Don't have an account? Register now (free) for customized features, flight alerts, and more!